Time,TemperatureF,DewpointF,PressureIn,WindDirection,WindDirectionDegrees,WindSpeedMPH,WindSpeedGustMPH,Humidity,HourlyPrecipIn,Conditions,Clouds,dailyrainin,SoftwareType,DateUTC
2013-08-14 00:00:00,70.8,70.2,29.76,SE,130,0.0,0.0,98,0.00,,,0.27,Wunderground v.1.15,2013-08-14 04:00:00,
2013-08-14 00:07:00,70.9,70.0,29.76,South,169,0.0,1.0,98,0.00,,,0.00,weatherlink.com 1.10,2013-08-14 04:07:00,
2013-08-14 00:10:00,70.9,70.3,29.77,South,169,0.0,0.0,98,0.00,,,0.00,Wunderground v.1.15,2013-08-14 04:10:00,
2013-08-14 00:15:00,71.0,70.4,29.77,South,169,0.0,0.0,98,0.00,,,0.00,Wunderground v.1.15,2013-08-14 04:15:00,
2013-08-14 00:20:00,71.1,70.5,29.77,SE,137,0.0,0.0,98,0.00,,,0.00,Wunderground v.1.15,2013-08-14 04:20:00,
2013-08-14 00:29:00,71.6,71.0,29.78,WSW,238,4.0,6.0,99,0.00,,,0.00,weatherlink.com 1.10,2013-08-14 04:29:00,
2013-08-14 00:35:00,72.7,72.4,29.77,SW,233,3.0,4.0,99,0.00,,,0.00,Wunderground v.1.15,2013-08-14 04:35:00,
2013-08-14 00:42:00,73.3,72.0,29.77,SW,236,5.0,6.0,97,0.00,,,0.00,weatherlink.com 1.10,2013-08-14 04:42:00,
2013-08-14 00:50:00,73.8,72.6,29.78,West,263,4.0,4.0,96,0.00,,,0.00,Wunderground v.1.15,2013-08-14 04:50:00,
2013-08-14 00:55:00,73.6,72.1,29.77,ENE,68,3.0,4.0,95,0.00,,,0.00,Wunderground v.1.15,2013-08-14 04:55:00,
2013-08-14 01:05:00,72.3,71.1,29.78,ENE,68,3.0,3.0,96,0.00,,,0.00,Wunderground v.1.15,2013-08-14 05:05:00,
2013-08-14 01:10:00,72.1,70.9,29.78,ENE,63,4.0,4.0,96,0.00,,,0.00,Wunderground v.1.15,2013-08-14 05:10:00,
2013-08-14 01:20:00,71.6,70.4,29.78,NE,46,2.0,2.0,96,0.00,,,0.00,Wunderground v.1.15,2013-08-14 05:20:00,
2013-08-14 01:27:00,71.2,70.0,29.78,NE,54,2.0,3.0,97,0.00,,,0.00,weatherlink.com 1.10,2013-08-14 05:27:00,
2013-08-14 01:35:00,70.7,69.5,29.78,ENE,63,1.0,2.0,96,0.00,,,0.00,Wunderground v.1.15,2013-08-14 05:35:00,
2013-08-14 01:40:00,70.4,68.9,29.78,NE,50,3.0,3.0,95,0.00,,,0.00,Wunderground v.1.15,2013-08-14 05:40:00,
2013-08-14 01:45:00,70.5,68.7,29.78,NE,56,4.0,8.0,94,0.00,,,0.00,Wunderground v.1.15,2013-08-14 05:45:00,
2013-08-14 01:55:00,70.6,67.5,29.79,NE,37,6.0,8.0,90,0.00,,,0.00,Wunderground v.1.15,2013-08-14 05:55:00,
2013-08-14 02:00:00,70.6,66.9,29.79,North,10,6.0,8.0,88,0.00,,,0.00,Wunderground v.1.15,2013-08-14 06:00:00,
2013-08-14 02:10:00,70.6,65.5,29.79,NE,34,7.0,7.0,84,0.00,,,0.00,Wunderground v.1.15,2013-08-14 06:10:00,
2013-08-14 02:20:00,70.6,64.8,29.79,NE,44,7.0,7.0,82,0.00,,,0.00,Wunderground v.1.15,2013-08-14 06:20:00,
2013-08-14 02:28:00,70.4,65.0,29.79,NNE,32,6.0,9.0,83,0.00,,,0.00,weatherlink.com 1.10,2013-08-14 06:28:00,
2013-08-14 02:35:00,70.3,64.5,29.79,ENE,60,5.0,5.0,82,0.00,,,0.00,Wunderground v.1.15,2013-08-14 06:35:00,
2013-08-14 02:45:00,70.6,64.0,29.79,NE,34,4.0,11.0,80,0.00,,,0.00,weatherlink.com 1.10,2013-08-14 06:45:00,
2013-08-14 02:50:00,70.7,63.9,29.79,NNE,22,7.0,7.0,79,0.00,,,0.00,Wunderground v.1.15,2013-08-14 06:50:00,
2013-08-14 02:55:00,70.6,64.1,29.79,NNE,25,6.0,7.0,80,0.00,,,0.00,Wunderground v.1.15,2013-08-14 06:55:00,
2013-08-14 03:00:00,71.1,64.6,29.80,NNE,20,7.0,12.0,80,0.00,,,0.00,Wunderground v.1.15,2013-08-14 07:00:00,
2013-08-14 03:10:00,71.8,64.2,29.79,NE,39,12.0,12.0,77,0.00,,,0.00,Wunderground v.1.15,2013-08-14 07:10:00,
2013-08-14 03:15:00,71.8,63.4,29.79,North,4,13.0,13.0,75,0.00,,,0.00,Wunderground v.1.15,2013-08-14 07:15:00,
2013-08-14 03:20:00,71.8,62.7,29.80,North,1,14.0,22.0,73,0.00,,,0.00,Wunderground v.1.15,2013-08-14 07:20:00,
2013-08-14 03:30:00,71.5,62.8,29.80,NNW,345,15.0,15.0,74,0.00,,,0.00,Wunderground v.1.15,2013-08-14 07:30:00,
2013-08-14 03:35:00,71.6,62.5,29.80,NNE,32,13.0,15.0,73,0.00,,,0.00,Wunderground v.1.15,2013-08-14 07:35:00,
2013-08-14 03:40:00,71.3,61.8,29.80,North,354,15.0,17.0,72,0.00,,,0.00,Wunderground v.1.15,2013-08-14 07:40:00,
2013-08-14 03:48:00,71.6,61.0,29.80,NNE,12,23.0,25.0,70,0.00,,,0.00,weatherlink.com 1.10,2013-08-14 07:48:00,
2013-08-14 03:55:00,71.5,62.0,29.81,North,359,19.0,19.0,72,0.00,,,0.00,Wunderground v.1.15,2013-08-14 07:55:00,
2013-08-14 04:00:00,71.3,59.8,29.81,NNE,33,18.0,18.0,67,0.00,,,0.00,Wunderground v.1.15,2013-08-14 08:00:00,
2013-08-14 04:10:00,70.5,58.6,29.81,NNE,15,18.0,22.0,66,0.00,,,0.00,Wunderground v.1.15,2013-08-14 08:10:00,
2013-08-14 04:18:00,70.3,60.0,29.81,NNW,341,20.0,25.0,71,0.00,,,0.00,weatherlink.com 1.10,2013-08-14 08:18:00,
2013-08-14 04:25:00,69.9,58.4,29.82,North,354,18.0,21.0,67,0.00,,,0.00,Wunderground v.1.15,2013-08-14 08:25:00,
2013-08-14 04:30:00,69.7,59.5,29.82,NNW,345,16.0,17.0,70,0.00,,,0.00,Wunderground v.1.15,2013-08-14 08:30:00,
2013-08-14 04:40:00,69.6,58.6,29.82,North,356,15.0,17.0,68,0.00,,,0.00,Wunderground v.1.15,2013-08-14 08:40:00,
2013-08-14 04:45:00,69.6,59.4,29.82,NNW,345,15.0,19.0,70,0.00,,,0.00,Wunderground v.1.15,2013-08-14 08:45:00,
2013-08-14 04:55:00,69.1,58.9,29.83,NNE,23,17.0,19.0,70,0.00,,,0.00,Wunderground v.1.15,2013-08-14 08:55:00,
2013-08-14 05:00:00,68.9,58.3,29.83,NNE,18,17.0,19.0,69,0.00,,,0.00,Wunderground v.1.15,2013-08-14 09:00:00,
2013-08-14 05:10:00,68.9,57.5,29.83,NNW,341,18.0,22.0,67,0.00,,,0.00,Wunderground v.1.15,2013-08-14 09:10:00,
2013-08-14 05:25:00,68.4,57.8,29.84,NNW,338,19.0,20.0,69,0.00,,,0.00,Wunderground v.1.15,2013-08-14 09:25:00,
2013-08-14 05:30:00,68.0,55.4,29.84,North,349,20.0,21.0,64,0.00,,,0.00,Wunderground v.1.15,2013-08-14 09:30:00,
2013-08-14 05:40:00,67.9,54.4,29.85,NNW,332,20.0,21.0,62,0.00,,,0.00,Wunderground v.1.15,2013-08-14 09:40:00,
2013-08-14 05:46:00,67.9,54.0,29.85,NNW,338,19.0,28.0,61,0.00,,,0.00,weatherlink.com 1.10,2013-08-14 09:46:00,
2013-08-14 05:55:00,67.5,54.9,29.85,North,5,19.0,19.0,64,0.00,,,0.00,Wunderground v.1.15,2013-08-14 09:55:00,
2013-08-14 06:00:00,67.3,52.0,29.85,NNW,335,19.0,19.0,58,0.00,,,0.00,Wunderground v.1.15,2013-08-14 10:00:00,
2013-08-14 06:10:00,67.2,52.8,29.86,NNW,339,21.0,21.0,60,0.00,,,0.00,Wunderground v.1.15,2013-08-14 10:10:00,
2013-08-14 06:17:00,67.0,51.0,29.87,NNW,341,21.0,31.0,56,0.00,,,0.00,weatherlink.com 1.10,2013-08-14 10:17:00,
2013-08-14 06:25:00,66.8,53.4,29.87,North,349,19.0,20.0,62,0.00,,,0.00,Wunderground v.1.15,2013-08-14 10:25:00,
2013-08-14 06:35:00,66.7,52.8,29.87,North,353,19.0,20.0,61,0.00,,,0.00,Wunderground v.1.15,2013-08-14 10:35:00,
2013-08-14 06:45:00,66.2,51.4,29.88,NNW,347,18.0,18.0,59,0.00,,,0.00,Wunderground v.1.15,2013-08-14 10:45:00,
2013-08-14 06:55:00,66.1,52.7,29.88,NNW,335,18.0,22.0,62,0.00,,,0.00,Wunderground v.1.15,2013-08-14 10:55:00,
2013-08-14 07:00:00,65.8,52.4,29.89,NNW,339,19.0,19.0,62,0.00,,,0.00,Wunderground v.1.15,2013-08-14 11:00:00,
2013-08-14 07:05:00,65.7,51.4,29.89,NNW,328,19.0,19.0,60,0.00,,,0.00,Wunderground v.1.15,2013-08-14 11:05:00,
2013-08-14 07:12:00,65.5,50.0,29.90,NNW,339,24.0,24.0,58,0.00,,,0.00,weatherlink.com 1.10,2013-08-14 11:12:00,
2013-08-14 07:20:00,65.5,51.7,29.90,North,9,18.0,18.0,61,0.00,,,0.00,Wunderground v.1.15,2013-08-14 11:20:00,
2013-08-14 07:30:00,65.5,53.0,29.91,NNE,16,15.0,20.0,64,0.00,,,0.00,Wunderground v.1.15,2013-08-14 11:30:00,
2013-08-14 07:35:00,65.5,50.8,29.91,North,349,18.0,20.0,59,0.00,,,0.00,Wunderground v.1.15,2013-08-14 11:35:00,
2013-08-14 07:45:00,65.4,50.7,29.91,North,357,17.0,20.0,59,0.00,,,0.00,Wunderground v.1.15,2013-08-14 11:45:00,
2013-08-14 07:50:00,65.4,50.2,29.91,NNW,343,17.0,17.0,58,0.00,,,0.00,Wunderground v.1.15,2013-08-14 11:50:00,
2013-08-14 07:58:00,65.4,51.0,29.91,NW,326,10.0,24.0,60,0.00,,,0.00,weatherlink.com 1.10,2013-08-14 11:58:00,
2013-08-14 08:05:00,65.5,51.2,29.92,NNW,338,16.0,17.0,60,0.00,,,0.00,Wunderground v.1.15,2013-08-14 12:05:00,
2013-08-14 08:20:00,65.6,50.0,29.93,NNE,12,14.0,22.0,58,0.00,,,0.00,weatherlink.com 1.10,2013-08-14 12:20:00,
2013-08-14 08:25:00,65.9,53.4,29.93,NNW,345,16.0,18.0,64,0.00,,,0.00,Wunderground v.1.15,2013-08-14 12:25:00,
2013-08-14 08:35:00,65.6,51.3,29.93,NNW,345,20.0,20.0,60,0.00,,,0.00,Wunderground v.1.15,2013-08-14 12:35:00,
2013-08-14 08:40:00,65.6,52.7,29.93,NNW,339,19.0,19.0,63,0.00,,,0.00,Wunderground v.1.15,2013-08-14 12:40:00,
2013-08-14 08:45:00,65.7,50.5,29.93,NW,326,18.0,19.0,58,0.00,,,0.00,Wunderground v.1.15,2013-08-14 12:45:00,
2013-08-14 08:53:00,65.6,51.0,29.93,North,350,18.0,22.0,59,0.00,,,0.00,weatherlink.com 1.10,2013-08-14 12:53:00,
2013-08-14 09:00:00,66.0,52.6,29.93,NW,315,16.0,18.0,62,0.00,,,0.00,Wunderground v.1.15,2013-08-14 13:00:00,
2013-08-14 09:05:00,66.1,53.6,29.93,NNW,340,16.0,20.0,64,0.00,,,0.00,Wunderground v.1.15,2013-08-14 13:05:00,
2013-08-14 09:15:00,65.9,52.9,29.93,North,349,17.0,17.0,63,0.00,,,0.00,Wunderground v.1.15,2013-08-14 13:15:00,
2013-08-14 09:20:00,65.7,51.4,29.93,NW,323,15.0,16.0,60,0.00,,,0.00,Wunderground v.1.15,2013-08-14 13:20:00,
2013-08-14 09:30:00,65.7,53.2,29.93,NNW,340,18.0,19.0,64,0.00,,,0.00,Wunderground v.1.15,2013-08-14 13:30:00,
2013-08-14 09:35:00,65.7,52.3,29.93,NNW,328,17.0,19.0,62,0.00,,,0.00,Wunderground v.1.15,2013-08-14 13:35:00,
2013-08-14 09:42:00,65.8,53.0,29.93,NNW,336,17.0,24.0,63,0.00,,,0.00,weatherlink.com 1.10,2013-08-14 13:42:00,
2013-08-14 09:50:00,66.3,52.0,29.94,NNW,343,18.0,20.0,60,0.00,,,0.00,Wunderground v.1.15,2013-08-14 13:50:00,
2013-08-14 09:55:00,66.3,53.8,29.94,NNW,338,18.0,20.0,64,0.00,,,0.00,Wunderground v.1.15,2013-08-14 13:55:00,
2013-08-14 10:00:00,66.4,53.0,29.93,NNW,333,17.0,17.0,62,0.00,,,0.00,Wunderground v.1.15,2013-08-14 14:00:00,
2013-08-14 10:05:00,66.4,52.5,29.93,NW,304,15.0,18.0,61,0.00,,,0.00,Wunderground v.1.15,2013-08-14 14:05:00,
2013-08-14 10:20:00,66.5,52.2,29.94,NW,323,15.0,15.0,60,0.00,,,0.00,Wunderground v.1.15,2013-08-14 14:20:00,
2013-08-14 10:25:00,66.8,53.4,29.94,NW,323,16.0,22.0,62,0.00,,,0.00,Wunderground v.1.15,2013-08-14 14:25:00,
2013-08-14 10:30:00,66.9,53.9,29.94,NW,307,16.0,16.0,63,0.00,,,0.00,Wunderground v.1.15,2013-08-14 14:30:00,
2013-08-14 10:40:00,66.6,52.7,29.95,NW,323,13.0,13.0,61,0.00,,,0.00,Wunderground v.1.15,2013-08-14 14:40:00,
2013-08-14 10:50:00,67.0,55.3,29.95,NW,323,14.0,19.0,66,0.00,,,0.00,Wunderground v.1.15,2013-08-14 14:50:00,
2013-08-14 11:05:00,67.1,51.8,29.95,NW,324,16.0,19.0,58,0.00,,,0.00,Wunderground v.1.15,2013-08-14 15:05:00,
2013-08-14 11:10:00,67.2,54.6,29.95,NW,311,16.0,17.0,64,0.00,,,0.00,Wunderground v.1.15,2013-08-14 15:10:00,
2013-08-14 11:20:00,67.3,52.0,29.96,NW,315,14.0,21.0,59,0.00,,,0.00,weatherlink.com 1.10,2013-08-14 15:20:00,
2013-08-14 11:25:00,67.4,53.0,29.96,NNW,332,15.0,18.0,60,0.00,,,0.00,Wunderground v.1.15,2013-08-14 15:25:00,
2013-08-14 11:30:00,67.3,52.5,29.96,NW,315,16.0,16.0,59,0.00,,,0.00,Wunderground v.1.15,2013-08-14 15:30:00,
2013-08-14 11:40:00,67.6,53.2,29.96,NNW,328,15.0,15.0,60,0.00,,,0.00,Wunderground v.1.15,2013-08-14 15:40:00,
2013-08-14 11:45:00,67.7,53.3,29.96,NW,307,15.0,22.0,60,0.00,,,0.00,Wunderground v.1.15,2013-08-14 15:45:00,
2013-08-14 11:50:00,68.0,53.6,29.96,NNW,332,16.0,17.0,60,0.00,,,0.00,Wunderground v.1.15,2013-08-14 15:50:00,
2013-08-14 12:00:00,68.1,54.6,29.95,NNW,328,16.0,16.0,62,0.00,,,0.00,Wunderground v.1.15,2013-08-14 16:00:00,
2013-08-14 12:10:00,68.4,52.6,29.96,NW,307,15.0,15.0,57,0.00,,,0.00,Wunderground v.1.15,2013-08-14 16:10:00,
2013-08-14 12:16:00,68.5,54.0,29.96,NW,319,20.0,22.0,61,0.00,,,0.00,weatherlink.com 1.10,2013-08-14 16:16:00,
2013-08-14 12:30:00,68.7,53.3,29.96,NNW,337,15.0,15.0,58,0.00,,,0.00,Wunderground v.1.15,2013-08-14 16:30:00,
2013-08-14 12:35:00,68.8,53.9,29.96,WNW,303,14.0,15.0,59,0.00,,,0.00,Wunderground v.1.15,2013-08-14 16:35:00,
2013-08-14 12:40:00,69.0,55.4,29.96,NW,325,14.0,18.0,62,0.00,,,0.00,Wunderground v.1.15,2013-08-14 16:40:00,
2013-08-14 12:48:00,69.1,54.0,29.95,WNW,302,16.0,21.0,58,0.00,,,0.00,weatherlink.com 1.10,2013-08-14 16:48:00,
2013-08-14 12:58:00,69.3,56.0,29.95,WNW,290,10.0,20.0,63,0.00,,,0.00,weatherlink.com 1.10,2013-08-14 16:58:00,
2013-08-14 13:05:00,69.4,53.5,29.95,NW,322,14.0,14.0,57,0.00,,,0.00,Wunderground v.1.15,2013-08-14 17:05:00,
2013-08-14 13:10:00,69.6,54.2,29.95,NNW,336,14.0,15.0,58,0.00,,,0.00,Wunderground v.1.15,2013-08-14 17:10:00,
2013-08-14 13:15:00,69.8,54.4,29.95,NW,323,15.0,15.0,58,0.00,,,0.00,Wunderground v.1.15,2013-08-14 17:15:00,
2013-08-14 13:25:00,70.1,55.6,29.95,WNW,290,14.0,15.0,60,0.00,,,0.00,Wunderground v.1.15,2013-08-14 17:25:00,
2013-08-14 13:35:00,70.4,55.8,29.95,NW,325,15.0,18.0,60,0.00,,,0.00,Wunderground v.1.15,2013-08-14 17:35:00,
2013-08-14 13:40:00,70.5,56.4,29.95,NW,309,16.0,16.0,61,0.00,,,0.00,Wunderground v.1.15,2013-08-14 17:40:00,
2013-08-14 13:50:00,70.7,53.7,29.94,NNW,328,14.0,14.0,55,0.00,,,0.00,Wunderground v.1.15,2013-08-14 17:50:00,
2013-08-14 14:00:00,71.2,57.5,29.94,WNW,302,15.0,15.0,62,0.00,,,0.00,Wunderground v.1.15,2013-08-14 18:00:00,
2013-08-14 14:12:00,71.3,55.0,29.94,NW,320,12.0,24.0,57,0.00,,,0.00,weatherlink.com 1.10,2013-08-14 18:12:00,
2013-08-14 14:20:00,71.4,56.8,29.94,NW,319,14.0,14.0,60,0.00,,,0.00,Wunderground v.1.15,2013-08-14 18:20:00,
2013-08-14 14:25:00,71.5,55.9,29.94,NNW,328,16.0,19.0,58,0.00,,,0.00,Wunderground v.1.15,2013-08-14 18:25:00,
2013-08-14 14:30:00,71.7,58.0,29.94,NW,323,16.0,16.0,62,0.00,,,0.00,Wunderground v.1.15,2013-08-14 18:30:00,
2013-08-14 14:40:00,71.9,54.3,29.94,NW,311,17.0,17.0,54,0.00,,,0.00,Wunderground v.1.15,2013-08-14 18:40:00,
2013-08-14 14:52:00,72.1,57.0,29.93,NW,324,22.0,23.0,59,0.00,,,0.00,weatherlink.com 1.10,2013-08-14 18:52:00,
2013-08-14 15:00:00,72.2,55.6,29.93,NNW,332,17.0,17.0,56,0.00,,,0.00,Wunderground v.1.15,2013-08-14 19:00:00,
2013-08-14 15:20:00,72.4,55.8,29.94,NW,325,14.0,15.0,56,0.00,,,0.00,Wunderground v.1.15,2013-08-14 19:20:00,
2013-08-14 15:30:00,72.6,56.0,29.93,NNW,328,15.0,15.0,56,0.00,,,0.00,Wunderground v.1.15,2013-08-14 19:30:00,
2013-08-14 15:40:00,72.9,56.8,29.94,NW,312,14.0,14.0,57,0.00,,,0.00,Wunderground v.1.15,2013-08-14 19:40:00,
2013-08-14 15:50:00,72.7,57.1,29.94,NNW,347,13.0,14.0,58,0.00,,,0.00,Wunderground v.1.15,2013-08-14 19:50:00,
2013-08-14 16:00:00,72.6,57.0,29.94,North,349,14.0,15.0,58,0.00,,,0.00,Wunderground v.1.15,2013-08-14 20:00:00,
2013-08-14 16:10:00,72.7,57.1,29.94,NW,323,13.0,15.0,58,0.00,,,0.00,Wunderground v.1.15,2013-08-14 20:10:00,
2013-08-14 16:15:00,72.7,57.5,29.94,NNE,20,13.0,15.0,59,0.00,,,0.00,Wunderground v.1.15,2013-08-14 20:15:00,
2013-08-14 16:30:00,72.6,56.5,29.94,NNE,18,12.0,12.0,57,0.00,,,0.00,Wunderground v.1.15,2013-08-14 20:30:00,
2013-08-14 16:35:00,72.7,56.1,29.94,North,349,12.0,18.0,56,0.00,,,0.00,Wunderground v.1.15,2013-08-14 20:35:00,
2013-08-14 16:50:00,72.9,56.3,29.95,NW,326,13.0,16.0,56,0.00,,,0.00,Wunderground v.1.15,2013-08-14 20:50:00,
2013-08-14 16:55:00,73.0,58.3,29.95,NNW,345,14.0,21.0,60,0.00,,,0.00,Wunderground v.1.15,2013-08-14 20:55:00,
2013-08-14 17:05:00,72.8,56.7,29.95,NNW,329,13.0,15.0,57,0.00,,,0.00,Wunderground v.1.15,2013-08-14 21:05:00,
2013-08-14 17:15:00,72.9,56.8,29.95,NW,325,12.0,12.0,57,0.00,,,0.00,Wunderground v.1.15,2013-08-14 21:15:00,
2013-08-14 17:20:00,72.9,57.7,29.96,NNW,341,12.0,14.0,59,0.00,,,0.00,Wunderground v.1.15,2013-08-14 21:20:00,
2013-08-14 17:25:00,72.7,56.1,29.96,NNW,337,11.0,14.0,56,0.00,,,0.00,Wunderground v.1.15,2013-08-14 21:25:00,
2013-08-14 17:35:00,73.2,58.0,29.96,North,351,9.0,16.0,59,0.00,,,0.00,Wunderground v.1.15,2013-08-14 21:35:00,
2013-08-14 17:40:00,73.2,58.5,29.96,NW,323,11.0,12.0,60,0.00,,,0.00,Wunderground v.1.15,2013-08-14 21:40:00,
2013-08-14 17:48:00,73.0,56.0,29.96,NW,323,12.0,16.0,55,0.00,,,0.00,weatherlink.com 1.10,2013-08-14 21:48:00,
2013-08-14 18:00:00,73.0,55.9,29.96,NNW,328,12.0,12.0,55,0.00,,,0.00,Wunderground v.1.15,2013-08-14 22:00:00,
2013-08-14 18:10:00,73.4,56.2,29.96,NNW,330,9.0,14.0,55,0.00,,,0.00,Wunderground v.1.15,2013-08-14 22:10:00,
2013-08-14 18:15:00,73.2,55.6,29.97,NNW,333,10.0,14.0,54,0.00,,,0.00,Wunderground v.1.15,2013-08-14 22:15:00,
2013-08-14 18:23:00,72.9,55.0,29.97,North,359,7.0,14.0,53,0.00,,,0.00,weatherlink.com 1.10,2013-08-14 22:23:00,
2013-08-14 18:30:00,73.1,57.4,29.97,NNW,333,9.0,9.0,58,0.00,,,0.00,Wunderground v.1.15,2013-08-14 22:30:00,
2013-08-14 18:40:00,73.1,54.9,29.97,North,6,8.0,8.0,53,0.00,,,0.00,Wunderground v.1.15,2013-08-14 22:40:00,
2013-08-14 18:50:00,73.1,57.0,29.97,North,354,7.0,10.0,57,0.00,,,0.00,Wunderground v.1.15,2013-08-14 22:50:00,
2013-08-14 19:00:00,73.2,55.6,29.97,NNW,336,10.0,10.0,54,0.00,,,0.00,Wunderground v.1.15,2013-08-14 23:00:00,
2013-08-14 19:10:00,73.2,56.1,29.97,NNW,330,9.0,9.0,55,0.00,,,0.00,Wunderground v.1.15,2013-08-14 23:10:00,
2013-08-14 19:15:00,73.3,56.2,29.97,NW,325,8.0,9.0,55,0.00,,,0.00,Wunderground v.1.15,2013-08-14 23:15:00,
2013-08-14 19:25:00,73.7,55.5,29.97,North,349,7.0,12.0,53,0.00,,,0.00,Wunderground v.1.15,2013-08-14 23:25:00,
2013-08-14 19:35:00,73.1,55.5,29.98,NNE,18,8.0,10.0,54,0.00,,,0.00,Wunderground v.1.15,2013-08-14 23:35:00,
2013-08-14 19:45:00,72.6,55.5,29.98,NE,37,5.0,7.0,55,0.00,,,0.00,Wunderground v.1.15,2013-08-14 23:45:00,
2013-08-14 20:00:00,72.0,55.0,29.99,NNE,22,4.0,10.0,55,0.00,,,0.00,weatherlink.com 1.10,2013-08-15 00:00:00,
2013-08-14 20:05:00,71.6,54.6,29.99,North,356,5.0,7.0,55,0.00,,,0.00,Wunderground v.1.15,2013-08-15 00:05:00,
2013-08-14 20:10:00,71.3,54.3,29.99,NE,47,5.0,6.0,55,0.00,,,0.00,Wunderground v.1.15,2013-08-15 00:10:00,
2013-08-14 20:20:00,70.9,54.9,30.00,ENE,63,4.0,4.0,57,0.00,,,0.00,Wunderground v.1.15,2013-08-15 00:20:00,
2013-08-14 20:29:00,71.7,56.0,30.00,NE,36,7.0,16.0,59,0.00,,,0.00,weatherlink.com 1.10,2013-08-15 00:29:00,
2013-08-14 20:35:00,72.0,55.4,30.00,North,354,9.0,9.0,56,0.00,,,0.00,Wunderground v.1.15,2013-08-15 00:35:00,
2013-08-14 20:40:00,71.7,54.7,30.00,NNE,22,7.0,7.0,55,0.00,,,0.00,Wunderground v.1.15,2013-08-15 00:40:00,
2013-08-14 20:49:00,71.0,54.0,30.01,NNW,336,4.0,8.0,56,0.00,,,0.00,weatherlink.com 1.10,2013-08-15 00:49:00,
2013-08-14 20:55:00,70.9,54.4,30.01,NE,44,5.0,8.0,56,0.00,,,0.00,Wunderground v.1.15,2013-08-15 00:55:00,
2013-08-14 21:00:00,70.8,54.3,30.01,NE,54,5.0,5.0,56,0.00,,,0.00,Wunderground v.1.15,2013-08-15 01:00:00,
2013-08-14 21:05:00,70.7,54.2,30.01,NNE,20,5.0,6.0,56,0.00,,,0.00,Wunderground v.1.15,2013-08-15 01:05:00,
2013-08-14 21:15:00,70.8,55.3,30.02,NNE,26,4.0,9.0,58,0.00,,,0.00,Wunderground v.1.15,2013-08-15 01:15:00,
2013-08-14 21:25:00,72.3,56.2,30.02,North,5,11.0,11.0,57,0.00,,,0.00,Wunderground v.1.15,2013-08-15 01:25:00,
2013-08-14 21:30:00,72.6,55.5,30.03,NE,46,11.0,11.0,55,0.00,,,0.00,Wunderground v.1.15,2013-08-15 01:30:00,
2013-08-14 21:40:00,71.7,54.7,30.03,ENE,58,6.0,6.0,55,0.00,,,0.00,Wunderground v.1.15,2013-08-15 01:40:00,
2013-08-14 21:46:00,71.5,54.0,30.03,ENE,68,2.0,8.0,55,0.00,,,0.00,weatherlink.com 1.10,2013-08-15 01:46:00,
2013-08-14 21:55:00,71.4,55.0,30.03,ENE,77,2.0,9.0,57,0.00,,,0.00,weatherlink.com 1.10,2013-08-15 01:55:00,
2013-08-14 22:00:00,71.4,55.9,30.03,NE,46,5.0,5.0,58,0.00,,,0.00,Wunderground v.1.15,2013-08-15 02:00:00,
2013-08-14 22:05:00,71.3,54.8,30.03,NNE,26,5.0,5.0,56,0.00,,,0.00,Wunderground v.1.15,2013-08-15 02:05:00,
2013-08-14 22:10:00,71.2,55.2,30.04,NE,56,5.0,5.0,57,0.00,,,0.00,Wunderground v.1.15,2013-08-15 02:10:00,
2013-08-14 22:25:00,71.3,55.8,30.04,ENE,75,5.0,5.0,58,0.00,,,0.00,Wunderground v.1.15,2013-08-15 02:25:00,
2013-08-14 22:30:00,71.2,55.2,30.04,NNW,345,5.0,6.0,57,0.00,,,0.00,Wunderground v.1.15,2013-08-15 02:30:00,
2013-08-14 22:37:00,71.1,55.0,30.04,NE,50,3.0,7.0,58,0.00,,,0.00,weatherlink.com 1.10,2013-08-15 02:37:00,
2013-08-14 22:45:00,70.7,55.7,30.04,ENE,76,3.0,3.0,59,0.00,,,0.00,Wunderground v.1.15,2013-08-15 02:45:00,
2013-08-14 22:51:00,70.4,56.0,30.04,NE,38,3.0,4.0,60,0.00,,,0.00,weatherlink.com 1.10,2013-08-15 02:51:00,
2013-08-14 23:00:00,71.1,60.4,30.04,NW,304,3.0,8.0,69,0.00,,,0.00,Wunderground v.1.15,2013-08-15 03:00:00,
2013-08-14 23:10:00,70.7,57.0,30.05,NW,307,2.0,9.0,62,0.00,,,0.00,Wunderground v.1.15,2013-08-15 03:10:00,
2013-08-14 23:15:00,71.4,58.1,30.05,WNW,299,5.0,9.0,63,0.00,,,0.00,Wunderground v.1.15,2013-08-15 03:15:00,
2013-08-14 23:25:00,71.7,59.3,30.05,NW,315,8.0,11.0,65,0.00,,,0.00,Wunderground v.1.15,2013-08-15 03:25:00,
2013-08-14 23:35:00,70.8,57.0,30.05,NNE,33,1.0,10.0,62,0.00,,,0.00,weatherlink.com 1.10,2013-08-15 03:35:00,
2013-08-14 23:40:00,70.3,56.2,30.05,NNE,29,2.0,4.0,61,0.00,,,0.00,Wunderground v.1.15,2013-08-15 03:40:00,
2013-08-14 23:50:00,69.8,56.2,30.06,North,4,3.0,3.0,62,0.00,,,0.00,Wunderground v.1.15,2013-08-15 03:50:00,
2013-08-14 23:55:00,69.6,56.0,30.06,ENE,61,3.0,3.0,62,0.00,,,0.00,Wunderground v.1.15,2013-08-15 03:55:00,